createdAt,value
2022-10-11T00:00:56.629Z,101387.38
2022-10-11T00:03:24.870Z,101377.13
2022-10-11T00:05:53.971Z,101376.97
2022-10-11T00:08:22.278Z,101370.19
2022-10-11T00:10:59.843Z,101375.16
2022-10-11T00:13:28.193Z,101373.16
2022-10-11T00:15:56.404Z,101373.13
2022-10-11T00:18:25.204Z,101372.63
2022-10-11T00:21:02.122Z,101368.66
2022-10-11T00:23:30.408Z,101370.38
2022-10-11T00:26:01.934Z,101359.13
2022-10-11T00:28:30.872Z,101370.97
2022-10-11T00:30:59.088Z,101364.91
2022-10-11T00:33:27.326Z,101361.53
2022-10-11T00:35:55.392Z,101361.03
2022-10-11T00:38:23.533Z,101353.06
2022-10-11T00:40:51.736Z,101355.81
2022-10-11T00:43:23.377Z,101349.41
2022-10-11T00:46:22.780Z,101352.34
2022-10-11T00:48:55.325Z,101338.59
2022-10-11T00:51:27.423Z,101336.28
2022-10-11T00:53:56.056Z,101342.63
2022-10-11T00:56:27.946Z,101341.34
2022-10-11T00:58:59.378Z,101337.34
2022-10-11T01:01:27.989Z,101344.03
2022-10-11T01:03:56.988Z,101338.75
2022-10-11T01:06:25.222Z,101335.63
2022-10-11T01:08:54.226Z,101330.25
2022-10-11T01:11:26.473Z,101324.44
2022-10-11T01:14:16.746Z,101317.72
2022-10-11T01:16:53.136Z,101324.00
2022-10-11T01:19:45.057Z,101309.66
2022-10-11T01:22:27.749Z,101303.09
2022-10-11T01:25:18.049Z,101301.00
2022-10-11T01:27:57.236Z,101296.13
2022-10-11T01:30:29.942Z,101300.03
2022-10-11T01:33:27.768Z,101299.81
2022-10-11T01:36:05.772Z,101307.09
2022-10-11T01:38:40.060Z,101297.44
2022-10-11T01:41:14.748Z,101298.75
2022-10-11T01:43:45.944Z,101302.44
2022-10-11T01:46:17.534Z,101300.53
2022-10-11T01:48:50.232Z,101299.34
2022-10-11T01:51:24.316Z,101293.66
2022-10-11T01:54:11.087Z,101296.22
2022-10-11T01:57:05.572Z,101303.28
2022-10-11T01:59:45.803Z,101297.59
2022-10-11T02:02:32.292Z,101293.34
2022-10-11T02:05:08.686Z,101290.66
2022-10-11T02:07:44.124Z,101294.16
2022-10-11T02:10:16.991Z,101296.03
2022-10-11T02:12:50.301Z,101302.09
2022-10-11T02:15:20.453Z,101295.03
2022-10-11T02:17:55.477Z,101294.00
2022-10-11T02:20:27.485Z,101305.75
2022-10-11T02:23:02.210Z,101304.13
2022-10-11T02:25:34.454Z,101299.44
2022-10-11T02:28:05.442Z,101297.63
2022-10-11T02:30:35.355Z,101292.84
2022-10-11T02:33:08.650Z,101292.00
2022-10-11T02:35:44.120Z,101291.44
2022-10-11T02:38:18.766Z,101287.97
2022-10-11T02:40:51.987Z,101292.59
2022-10-11T02:43:27.422Z,101296.97
2022-10-11T02:45:59.144Z,101295.47
2022-10-11T02:48:29.544Z,101299.72
2022-10-11T02:50:58.718Z,101291.97
2022-10-11T02:53:27.810Z,101291.38
2022-10-11T02:55:56.906Z,101291.38
2022-10-11T02:58:25.606Z,101287.59
2022-10-11T03:00:53.792Z,101285.22
2022-10-11T03:03:22.146Z,101281.25
2022-10-11T03:05:51.656Z,101278.56
2022-10-11T03:08:19.756Z,101285.16
2022-10-11T03:10:48.409Z,101284.44
2022-10-11T03:13:18.509Z,101292.09
2022-10-11T03:16:01.847Z,101288.97
2022-10-11T03:18:31.748Z,101284.84
2022-10-11T03:21:01.346Z,101280.94
2022-10-11T03:23:29.911Z,101277.16
2022-10-11T03:25:57.967Z,101281.06
2022-10-11T03:28:26.155Z,101282.75
2022-10-11T03:30:54.357Z,101281.50
2022-10-11T03:33:22.755Z,101278.53
2022-10-11T03:35:51.205Z,101277.75
2022-10-11T03:38:23.748Z,101273.25
2022-10-11T03:40:52.024Z,101268.81
2022-10-11T03:43:20.107Z,101270.50
2022-10-11T03:45:48.401Z,101267.09
2022-10-11T03:48:17.584Z,101268.97
2022-10-11T03:50:46.362Z,101267.00
2022-10-11T03:53:14.745Z,101268.31
2022-10-11T03:55:44.310Z,101263.81
2022-10-11T03:58:12.497Z,101264.59
2022-10-11T04:00:41.028Z,101263.81
2022-10-11T04:03:09.121Z,101266.78
2022-10-11T04:05:37.602Z,101271.94
2022-10-11T04:08:09.818Z,101255.28
2022-10-11T04:10:40.699Z,101256.84
2022-10-11T04:13:10.970Z,101254.97
2022-10-11T04:15:41.347Z,101261.63
2022-10-11T04:18:10.110Z,101260.06
2022-10-11T04:20:38.303Z,101257.78
2022-10-11T04:23:06.446Z,101258.88
2022-10-11T04:25:34.573Z,101261.97
2022-10-11T04:28:03.067Z,101259.59
2022-10-11T04:30:32.686Z,101265.44
2022-10-11T04:33:00.853Z,101263.22
2022-10-11T04:35:29.052Z,101262.63
2022-10-11T04:37:57.160Z,101258.75
2022-10-11T04:40:25.221Z,101259.38
2022-10-11T04:42:53.915Z,101264.56
2022-10-11T04:45:21.999Z,101263.47
2022-10-11T04:47:51.545Z,101266.66
2022-10-11T04:50:19.904Z,101271.31
2022-10-11T04:52:48.057Z,101267.53
2022-10-11T04:55:16.287Z,101269.59
2022-10-11T04:57:44.517Z,101272.50
2022-10-11T05:00:13.880Z,101275.69
2022-10-11T05:02:41.995Z,101285.41
2022-10-11T05:05:13.079Z,101283.28
2022-10-11T05:07:42.201Z,101282.69
2022-10-11T05:10:11.647Z,101281.63
2022-10-11T05:12:39.828Z,101277.00
2022-10-11T05:15:09.416Z,101282.38
2022-10-11T05:17:37.510Z,101282.13
2022-10-11T05:20:10.123Z,101285.81
2022-10-11T05:22:39.774Z,101286.88
2022-10-11T05:25:08.472Z,101292.81
2022-10-11T05:27:36.558Z,101291.06
2022-10-11T05:30:06.181Z,101297.03
2022-10-11T05:32:34.872Z,101287.97
2022-10-11T05:35:03.122Z,101298.28
2022-10-11T05:37:31.217Z,101307.13
2022-10-11T05:40:00.705Z,101300.00
2022-10-11T05:42:28.956Z,101291.28
2022-10-11T05:44:57.155Z,101304.22
2022-10-11T05:47:25.252Z,101292.53
2022-10-11T05:49:53.891Z,101291.72
2022-10-11T05:52:22.049Z,101300.50
2022-10-11T05:54:50.501Z,101297.91
2022-10-11T05:57:20.062Z,101307.00
2022-10-11T05:59:48.107Z,101305.41
2022-10-11T06:02:17.336Z,101304.28
2022-10-11T06:04:45.415Z,101296.19
2022-10-11T06:07:13.560Z,101301.53
2022-10-11T06:09:41.661Z,101309.56
2022-10-11T06:12:09.779Z,101303.47
2022-10-11T06:14:39.552Z,101307.84
2022-10-11T06:17:08.108Z,101309.50
2022-10-11T06:19:36.309Z,101306.53
2022-10-11T06:22:04.405Z,101312.75
2022-10-11T06:24:32.570Z,101316.13
2022-10-11T06:27:00.662Z,101308.19
2022-10-11T06:29:28.717Z,101315.47
2022-10-11T06:31:58.511Z,101318.75
2022-10-11T06:34:26.677Z,101318.91
2022-10-11T06:37:01.133Z,101316.84
2022-10-11T06:39:29.464Z,101308.09
2022-10-11T06:42:00.650Z,101318.28
2022-10-11T06:44:32.913Z,101318.13
2022-10-11T06:47:02.559Z,101315.91
2022-10-11T06:49:34.556Z,101322.72
2022-10-11T06:52:02.791Z,101319.06
2022-10-11T06:54:31.280Z,101322.91
2022-10-11T06:56:59.860Z,101324.63
2022-10-11T06:59:30.428Z,101334.16
2022-10-11T07:02:00.098Z,101332.09
2022-10-11T07:04:30.630Z,101334.69
2022-10-11T07:06:58.725Z,101332.44
2022-10-11T07:09:27.216Z,101320.84
2022-10-11T07:11:55.465Z,101323.66
2022-10-11T07:14:23.650Z,101321.84
2022-10-11T07:16:52.040Z,101326.94
2022-10-11T07:19:20.826Z,101324.22
2022-10-11T07:21:50.436Z,101331.03
2022-10-11T07:24:18.585Z,101328.75
2022-10-11T07:26:46.649Z,101331.13
2022-10-11T07:29:14.951Z,101328.75
2022-10-11T07:31:44.653Z,101326.31
2022-10-11T07:34:13.208Z,101328.88
2022-10-11T07:36:41.483Z,101329.38
2022-10-11T07:39:11.535Z,101329.59
2022-10-11T07:41:45.410Z,101335.56
2022-10-11T07:44:14.265Z,101334.03
2022-10-11T07:46:42.533Z,101329.41
2022-10-11T07:49:10.613Z,101327.78
2022-10-11T07:51:38.712Z,101331.44
2022-10-11T07:54:07.641Z,101337.66
2022-10-11T07:56:38.265Z,101336.38
2022-10-11T07:59:06.460Z,101340.78
2022-10-11T08:01:34.942Z,101343.72
2022-10-11T08:04:03.180Z,101336.34
2022-10-11T08:06:32.900Z,101336.63
2022-10-11T08:09:02.657Z,101339.50
2022-10-11T08:11:33.204Z,101336.94
2022-10-11T08:14:04.546Z,101332.31
2022-10-11T08:16:32.699Z,101335.03
2022-10-11T08:19:01.486Z,101333.56
2022-10-11T08:21:30.012Z,101332.56
2022-10-11T08:23:58.238Z,101326.00
2022-10-11T08:26:26.777Z,101333.34
2022-10-11T08:28:54.955Z,101331.97
2022-10-11T08:31:24.485Z,101331.78
2022-10-11T08:33:52.757Z,101328.72
2022-10-11T08:36:21.047Z,101322.50
2022-10-11T08:38:49.228Z,101319.91
2022-10-11T08:41:32.552Z,101323.44
2022-10-11T08:44:16.111Z,101322.72
2022-10-11T08:46:51.585Z,101319.78
2022-10-11T08:49:24.354Z,101315.06
2022-10-11T08:52:00.266Z,101316.22
2022-10-11T08:54:37.227Z,101323.00
2022-10-11T08:57:07.110Z,101320.88
2022-10-11T08:59:42.851Z,101313.63
2022-10-11T09:02:43.702Z,101310.91
2022-10-11T09:05:19.891Z,101316.91
2022-10-11T09:07:57.118Z,101313.03
2022-10-11T09:10:51.044Z,101313.72
2022-10-11T09:13:42.407Z,101308.06
2022-10-11T09:16:20.057Z,101311.94
2022-10-11T09:19:22.053Z,101305.69
2022-10-11T09:21:59.133Z,101318.25
2022-10-11T09:24:57.313Z,101311.00
2022-10-11T09:27:57.389Z,101315.44
2022-10-11T09:30:21.905Z,101306.28
2022-10-11T09:33:03.579Z,101309.66
2022-10-11T09:35:38.991Z,101309.31
2022-10-11T09:38:14.249Z,101316.91
2022-10-11T09:40:52.943Z,101305.13
2022-10-11T09:43:21.167Z,101307.41
2022-10-11T09:45:49.853Z,101303.53
2022-10-11T09:48:21.610Z,101297.63
2022-10-11T09:50:52.902Z,101295.84
2022-10-11T09:53:22.732Z,101300.94
2022-10-11T09:55:54.645Z,101301.72
2022-10-11T09:58:31.502Z,101295.63
2022-10-11T10:01:07.636Z,101291.09
2022-10-11T10:03:38.081Z,101289.63
2022-10-11T10:06:10.633Z,101292.47
2022-10-11T10:08:38.963Z,101283.38
2022-10-11T10:11:09.561Z,101291.78
2022-10-11T10:13:44.421Z,101286.56
2022-10-11T10:16:27.973Z,101277.63
2022-10-11T10:18:57.984Z,101285.09
2022-10-11T10:21:31.563Z,101280.88
2022-10-11T10:24:03.384Z,101276.28
2022-10-11T10:26:32.872Z,101282.47
2022-10-11T10:29:06.738Z,101278.47
2022-10-11T10:32:01.564Z,101274.31
2022-10-11T10:34:31.194Z,101264.09
2022-10-11T10:37:05.110Z,101265.28
2022-10-11T10:39:40.892Z,101270.84
2022-10-11T10:42:15.335Z,101271.75
2022-10-11T10:44:44.026Z,101264.97
2022-10-11T10:47:22.274Z,101269.13
2022-10-11T10:49:58.584Z,101270.75
2022-10-11T10:52:50.370Z,101261.25
2022-10-11T10:55:27.054Z,101266.09
2022-10-11T10:58:07.222Z,101257.84
2022-10-11T11:00:44.726Z,101254.56
2022-10-11T11:03:22.909Z,101256.56
2022-10-11T11:06:02.045Z,101257.94
2022-10-11T11:08:48.070Z,101258.97
2022-10-11T11:11:33.580Z,101245.50
2022-10-11T11:14:11.115Z,101249.59
2022-10-11T11:16:46.240Z,101249.25
2022-10-11T11:19:29.156Z,101241.44
2022-10-11T11:22:03.442Z,101241.09
2022-10-11T11:24:41.289Z,101234.31
2022-10-11T11:27:19.583Z,101233.84
2022-10-11T11:29:55.664Z,101235.41
2022-10-11T11:32:36.212Z,101230.91
2022-10-11T11:35:10.943Z,101221.13
2022-10-11T11:37:42.033Z,101226.44
2022-10-11T11:40:18.515Z,101227.91
2022-10-11T11:42:50.308Z,101230.59
2022-10-11T11:45:22.597Z,101225.97
2022-10-11T11:47:56.203Z,101219.75
2022-10-11T11:50:28.604Z,101216.41
2022-10-11T11:53:04.792Z,101220.69
2022-10-11T11:55:43.809Z,101222.25
2022-10-11T11:58:26.379Z,101223.31
2022-10-11T12:01:04.010Z,101225.28
2022-10-11T12:03:41.642Z,101223.56
2022-10-11T12:06:31.766Z,101220.19
2022-10-11T12:09:06.497Z,101222.44
2022-10-11T12:11:47.654Z,101221.78
2022-10-11T12:14:37.735Z,101220.41
2022-10-11T12:17:12.852Z,101222.94
2022-10-11T12:19:43.431Z,101227.44
2022-10-11T12:22:20.939Z,101225.56
2022-10-11T12:24:56.873Z,101224.84
2022-10-11T12:27:41.643Z,101211.69
2022-10-11T12:30:57.582Z,101215.13
2022-10-11T12:33:46.910Z,101216.41
2022-10-11T12:36:35.678Z,101223.00
2022-10-11T12:39:52.968Z,101219.41
2022-10-11T12:42:28.065Z,101215.72
2022-10-11T12:45:35.624Z,101218.34
2022-10-11T12:48:41.205Z,101213.47
2022-10-11T12:51:33.737Z,101205.50
2022-10-11T12:54:30.998Z,101212.81
2022-10-11T12:57:26.709Z,101210.22
2022-10-11T12:59:54.971Z,101215.00
2022-10-11T13:02:30.542Z,101207.09
2022-10-11T13:05:09.319Z,101208.47
2022-10-11T13:07:37.727Z,101211.19
2022-10-11T13:10:07.184Z,101211.03
2022-10-11T13:12:42.089Z,101203.03
2022-10-11T13:15:16.628Z,101204.94
2022-10-11T13:17:46.160Z,101195.91
2022-10-11T13:20:20.066Z,101202.56
2022-10-11T13:22:50.324Z,101192.16
2022-10-11T13:25:21.688Z,101195.56
2022-10-11T13:27:51.545Z,101193.31
2022-10-11T13:30:22.036Z,101189.78
2022-10-11T13:32:53.375Z,101192.50
2022-10-11T13:35:26.190Z,101188.13
2022-10-11T13:37:54.332Z,101179.31
2022-10-11T13:40:23.503Z,101185.25
2022-10-11T13:42:54.049Z,101181.94
2022-10-11T13:45:24.563Z,101185.59
2022-10-11T13:47:55.679Z,101185.84
2022-10-11T13:50:30.983Z,101181.56
2022-10-11T13:53:01.549Z,101180.38
2022-10-11T13:55:32.867Z,101180.38
2022-10-11T13:58:03.279Z,101171.28
2022-10-11T14:00:35.367Z,101177.59
2022-10-11T14:03:10.135Z,101173.78
2022-10-11T14:05:41.330Z,101176.81
2022-10-11T14:08:23.108Z,101172.75
2022-10-11T14:10:56.741Z,101169.63
2022-10-11T14:13:30.292Z,101168.09
2022-10-11T14:16:08.991Z,101171.09
2022-10-11T14:18:45.187Z,101168.44
2022-10-11T14:21:36.077Z,101166.81
2022-10-11T14:24:06.385Z,101168.81
2022-10-11T14:26:37.332Z,101171.44
2022-10-11T14:29:08.972Z,101172.59
2022-10-11T14:31:41.509Z,101166.38
2022-10-11T14:34:17.578Z,101164.41
2022-10-11T14:36:45.713Z,101163.47
2022-10-11T14:39:17.596Z,101159.66
2022-10-11T14:41:46.059Z,101168.56
2022-10-11T14:44:14.451Z,101160.19
2022-10-11T14:46:42.781Z,101157.97
2022-10-11T14:49:17.958Z,101149.38
2022-10-11T14:51:47.923Z,101151.75
2022-10-11T14:54:18.970Z,101160.09
2022-10-11T14:56:48.030Z,101156.25
2022-10-11T14:59:18.450Z,101155.00
2022-10-11T15:01:51.724Z,101156.13
2022-10-11T15:04:22.081Z,101154.72
2022-10-11T15:06:50.400Z,101156.47
2022-10-11T15:09:20.900Z,101157.75
2022-10-11T15:11:50.288Z,101160.63
2022-10-11T15:14:18.670Z,101156.63
2022-10-11T15:16:46.980Z,101159.34
2022-10-11T15:19:16.857Z,101165.25
2022-10-11T15:21:46.429Z,101166.03
2022-10-11T15:24:15.130Z,101163.97
2022-10-11T15:26:46.186Z,101165.88
2022-10-11T15:29:22.071Z,101163.66
2022-10-11T15:31:50.476Z,101163.34
2022-10-11T15:34:21.998Z,101157.94
2022-10-11T15:36:51.556Z,101161.75
2022-10-11T15:39:28.656Z,101158.28
2022-10-11T15:41:58.666Z,101168.44
2022-10-11T15:44:30.088Z,101170.00
2022-10-11T15:47:01.284Z,101176.34
2022-10-11T15:49:29.352Z,101170.31
2022-10-11T15:52:06.037Z,101172.88
2022-10-11T15:54:34.154Z,101178.59
2022-10-11T15:57:05.140Z,101176.19
2022-10-11T15:59:35.052Z,101180.00
2022-10-11T16:02:04.786Z,101181.59
2022-10-11T16:04:32.946Z,101180.81
2022-10-11T16:07:02.397Z,101185.41
2022-10-11T16:09:30.482Z,101184.63
2022-10-11T16:11:58.625Z,101185.41
2022-10-11T16:14:26.979Z,101183.34
2022-10-11T16:17:01.415Z,101186.69
2022-10-11T16:19:29.568Z,101188.91
2022-10-11T16:21:57.800Z,101184.78
2022-10-11T16:24:27.821Z,101192.25
2022-10-11T16:26:56.114Z,101184.63
2022-10-11T16:29:25.686Z,101186.22
2022-10-11T16:31:53.886Z,101188.72
2022-10-11T16:34:22.009Z,101190.16
2022-10-11T16:36:50.321Z,101198.44
2022-10-11T16:39:19.885Z,101197.97
2022-10-11T16:41:49.612Z,101190.81
2022-10-11T16:44:19.596Z,101192.06
2022-10-11T16:46:49.751Z,101200.97
2022-10-11T16:49:19.310Z,101197.47
2022-10-11T16:51:47.471Z,101202.09
2022-10-11T16:54:20.014Z,101205.56
2022-10-11T16:56:51.127Z,101205.25
2022-10-11T16:59:19.331Z,101202.41
2022-10-11T17:01:47.853Z,101202.41
2022-10-11T17:04:16.574Z,101202.72
2022-10-11T17:06:45.263Z,101209.72
2022-10-11T17:09:14.019Z,101202.72
2022-10-11T17:11:42.695Z,101207.94
2022-10-11T17:14:13.225Z,101206.69
2022-10-11T17:16:41.946Z,101205.41
2022-10-11T17:19:12.902Z,101197.13
2022-10-11T17:21:41.498Z,101199.81
2022-10-11T17:24:10.073Z,101195.56
2022-10-11T17:26:38.199Z,101200.16
2022-10-11T17:29:06.297Z,101198.72
2022-10-11T17:31:38.431Z,101191.91
2022-10-11T17:34:06.523Z,101195.25
2022-10-11T17:36:35.408Z,101190.75
2022-10-11T17:39:05.704Z,101187.56
2022-10-11T17:41:33.845Z,101193.47
2022-10-11T17:44:03.179Z,101196.94
2022-10-11T17:46:32.981Z,101193.78
2022-10-11T17:49:04.807Z,101198.03
2022-10-11T17:51:34.108Z,101196.78
2022-10-11T17:54:02.266Z,101197.09
2022-10-11T17:56:37.405Z,101195.97
2022-10-11T17:59:06.868Z,101205.53
2022-10-11T18:01:35.177Z,101198.03
2022-10-11T18:04:09.305Z,101201.25
2022-10-11T18:06:40.549Z,101193.97
2022-10-11T18:09:08.821Z,101196.34
2022-10-11T18:11:37.127Z,101190.75
2022-10-11T18:14:06.297Z,101192.19
2022-10-11T18:16:34.447Z,101191.72
2022-10-11T18:19:06.489Z,101192.19
2022-10-11T18:21:36.761Z,101186.16
2022-10-11T18:24:07.913Z,101189.63
2022-10-11T18:26:36.076Z,101188.34
2022-10-11T18:29:05.210Z,101195.16
2022-10-11T18:31:35.272Z,101193.91
2022-10-11T18:34:10.138Z,101184.38
2022-10-11T18:36:44.486Z,101182.19
2022-10-11T18:39:15.059Z,101183.28
2022-10-11T18:41:44.585Z,101182.16
2022-10-11T18:44:15.375Z,101175.34
2022-10-11T18:46:44.285Z,101182.34
2022-10-11T18:49:14.694Z,101176.47
2022-10-11T18:51:48.009Z,101178.34
2022-10-11T18:54:20.186Z,101182.00
2022-10-11T18:56:49.897Z,101194.84
2022-10-11T18:59:18.357Z,101181.53
2022-10-11T19:01:46.904Z,101196.91
2022-10-11T19:04:17.485Z,101185.50
2022-10-11T19:06:48.353Z,101190.44
2022-10-11T19:09:21.486Z,101205.84
2022-10-11T19:11:50.514Z,101204.22
2022-10-11T19:14:21.306Z,101201.06
2022-10-11T19:16:52.037Z,101207.09
2022-10-11T19:19:23.588Z,101205.97
2022-10-11T19:21:51.824Z,101212.50
2022-10-11T19:24:21.883Z,101210.56
2022-10-11T19:26:52.066Z,101209.47
2022-10-11T19:29:22.249Z,101212.16
2022-10-11T19:31:52.571Z,101215.66
2022-10-11T19:34:23.408Z,101222.47
2022-10-11T19:36:53.389Z,101217.38
2022-10-11T19:39:23.047Z,101212.50
2022-10-11T19:41:51.319Z,101213.75
2022-10-11T19:44:19.574Z,101217.88
2022-10-11T19:46:52.452Z,101220.59
2022-10-11T19:49:25.229Z,101212.50
2022-10-11T19:51:55.320Z,101211.50
2022-10-11T19:54:24.136Z,101223.44
2022-10-11T19:56:52.611Z,101225.47
2022-10-11T19:59:20.701Z,101223.09
2022-10-11T20:01:52.853Z,101216.09
2022-10-11T20:07:11.902Z,101220.03
2022-10-11T20:09:40.109Z,101222.94
2022-10-11T20:12:08.764Z,101219.59
2022-10-11T20:14:37.110Z,101221.69
2022-10-11T20:17:05.229Z,101219.00
2022-10-11T20:19:34.781Z,101227.41
2022-10-11T20:22:03.251Z,101216.13
2022-10-11T20:24:33.634Z,101218.47
2022-10-11T20:27:03.030Z,101221.81
2022-10-11T20:29:31.263Z,101215.47
2022-10-11T20:32:00.197Z,101219.25
2022-10-11T20:34:28.933Z,101220.03
2022-10-11T20:36:58.393Z,101218.31
2022-10-11T20:39:26.487Z,101210.22
2022-10-11T20:41:54.946Z,101212.78
2022-10-11T20:44:23.080Z,101214.53
2022-10-11T20:46:51.294Z,101208.47
2022-10-11T20:49:20.772Z,101210.84
2022-10-11T20:51:48.860Z,101211.00
2022-10-11T20:54:18.934Z,101201.31
2022-10-11T20:56:47.042Z,101207.50
2022-10-11T20:59:15.244Z,101205.47
2022-10-11T21:01:43.522Z,101205.63
2022-10-11T21:04:19.072Z,101205.16
2022-10-11T21:06:47.620Z,101199.41
2022-10-11T21:09:16.796Z,101201.94
2022-10-11T21:11:46.624Z,101200.19
2022-10-11T21:14:15.189Z,101191.00
2022-10-11T21:16:43.398Z,101195.56
2022-10-11T21:19:14.825Z,101202.09
2022-10-11T21:21:43.580Z,101206.31
2022-10-11T21:24:11.687Z,101198.53
2022-10-11T21:26:39.945Z,101202.38
2022-10-11T21:29:09.564Z,101204.41
2022-10-11T21:31:37.841Z,101204.75
2022-10-11T21:34:07.437Z,101202.81
2022-10-11T21:36:35.562Z,101211.34
2022-10-11T21:39:03.872Z,101200.72
2022-10-11T21:41:32.156Z,101196.47
2022-10-11T21:44:00.817Z,101196.94
2022-10-11T21:47:01.215Z,101192.63
2022-10-11T21:49:21.184Z,101194.25
2022-10-11T21:51:49.553Z,101197.06
2022-10-11T21:54:18.271Z,101200.06
2022-10-11T21:56:47.412Z,101191.97
2022-10-11T21:59:15.955Z,101194.34
2022-10-11T22:01:45.607Z,101195.84
2022-10-11T22:04:13.878Z,101194.66
2022-10-11T22:06:42.124Z,101196.91
2022-10-11T22:09:10.362Z,101193.88
2022-10-11T22:11:39.049Z,101197.06
2022-10-11T22:14:07.291Z,101188.34
2022-10-11T22:16:36.079Z,101191.34
2022-10-11T22:19:05.663Z,101190.03
2022-10-11T22:21:34.062Z,101186.25
2022-10-11T22:24:02.249Z,101187.66
2022-10-11T22:26:32.459Z,101185.75
2022-10-11T22:29:00.983Z,101181.78
2022-10-11T22:31:29.942Z,101186.22
2022-10-11T22:33:59.598Z,101182.41
2022-10-11T22:36:30.659Z,101177.97
2022-10-11T22:38:59.070Z,101187.81
2022-10-11T22:41:27.539Z,101182.69
2022-10-11T22:43:55.608Z,101186.88
2022-10-11T22:46:23.759Z,101191.34
2022-10-11T22:48:51.832Z,101188.69
2022-10-11T22:51:21.177Z,101188.03
2022-10-11T22:53:50.731Z,101189.44
2022-10-11T22:56:19.010Z,101197.06
2022-10-11T22:58:47.081Z,101193.09
2022-10-11T23:01:16.229Z,101192.47
2022-10-11T23:03:44.841Z,101198.91
2022-10-11T23:06:12.984Z,101193.38
2022-10-11T23:08:41.121Z,101192.56
2022-10-11T23:11:12.566Z,101199.69
2022-10-11T23:13:40.777Z,101194.41
2022-10-11T23:16:10.224Z,101200.69
2022-10-11T23:18:38.787Z,101200.25
2022-10-11T23:21:08.168Z,101205.28
2022-10-11T23:23:36.759Z,101206.78
2022-10-11T23:26:06.151Z,101201.41
2022-10-11T23:28:36.138Z,101194.88
2022-10-11T23:31:09.103Z,101195.66
2022-10-11T23:33:37.732Z,101195.84
2022-10-11T23:36:06.454Z,101197.75
2022-10-11T23:38:34.636Z,101199.63
2022-10-11T23:41:03.353Z,101194.97
2022-10-11T23:43:31.456Z,101201.22
2022-10-11T23:46:01.005Z,101202.31
2022-10-11T23:48:29.206Z,101199.94
2022-10-11T23:50:57.272Z,101201.75
2022-10-11T23:53:26.654Z,101198.69
2022-10-11T23:55:54.706Z,101197.44
2022-10-11T23:58:22.852Z,101196.97
